sensor_id;sensor_type;location;lat;lon;timestamp;P1;durP1;ratioP1;P2;durP2;ratioP2
4758;SDS011;2393;50.560;12.636;2023-05-17T00:00:30;2.78;;;0.90;;
4758;SDS011;2393;50.560;12.636;2023-05-17T00:02:58;0.90;;;0.90;;
4758;SDS011;2393;50.560;12.636;2023-05-17T00:05:26;2.78;;;0.63;;
4758;SDS011;2393;50.560;12.636;2023-05-17T00:07:55;2.00;;;0.60;;
4758;SDS011;2393;50.560;12.636;2023-05-17T00:10:23;0.70;;;0.70;;
4758;SDS011;2393;50.560;12.636;2023-05-17T00:12:51;0.80;;;0.80;;
4758;SDS011;2393;50.560;12.636;2023-05-17T00:15:20;4.22;;;0.85;;
4758;SDS011;2393;50.560;12.636;2023-05-17T00:17:49;2.25;;;0.50;;
4758;SDS011;2393;50.560;12.636;2023-05-17T00:20:17;0.80;;;0.80;;
4758;SDS011;2393;50.560;12.636;2023-05-17T00:22:46;2.80;;;1.42;;
4758;SDS011;2393;50.560;12.636;2023-05-17T00:25:13;1.10;;;0.88;;
4758;SDS011;2393;50.560;12.636;2023-05-17T00:27:42;0.52;;;0.52;;
4758;SDS011;2393;50.560;12.636;2023-05-17T00:30:10;0.70;;;0.70;;
4758;SDS011;2393;50.560;12.636;2023-05-17T00:32:39;2.72;;;1.05;;
4758;SDS011;2393;50.560;12.636;2023-05-17T00:35:07;2.78;;;1.00;;
4758;SDS011;2393;50.560;12.636;2023-05-17T00:37:36;1.83;;;0.80;;
4758;SDS011;2393;50.560;12.636;2023-05-17T00:40:04;2.08;;;1.98;;
4758;SDS011;2393;50.560;12.636;2023-05-17T00:42:33;9.55;;;0.80;;
4758;SDS011;2393;50.560;12.636;2023-05-17T00:45:01;12.60;;;1.00;;
4758;SDS011;2393;50.560;12.636;2023-05-17T00:47:30;0.75;;;0.75;;
4758;SDS011;2393;50.560;12.636;2023-05-17T00:50:00;9.57;;;1.33;;
4758;SDS011;2393;50.560;12.636;2023-05-17T00:52:28;2.15;;;0.80;;
4758;SDS011;2393;50.560;12.636;2023-05-17T00:54:56;2.00;;;1.10;;
4758;SDS011;2393;50.560;12.636;2023-05-17T00:57:25;0.98;;;0.77;;
4758;SDS011;2393;50.560;12.636;2023-05-17T00:59:54;3.05;;;0.93;;
4758;SDS011;2393;50.560;12.636;2023-05-17T01:02:23;7.55;;;0.60;;
4758;SDS011;2393;50.560;12.636;2023-05-17T01:04:51;0.68;;;0.68;;
4758;SDS011;2393;50.560;12.636;2023-05-17T01:07:21;6.10;;;1.10;;
4758;SDS011;2393;50.560;12.636;2023-05-17T01:09:49;2.88;;;1.00;;
4758;SDS011;2393;50.560;12.636;2023-05-17T01:12:23;2.72;;;0.90;;
4758;SDS011;2393;50.560;12.636;2023-05-17T01:15:02;0.73;;;0.73;;
4758;SDS011;2393;50.560;12.636;2023-05-17T01:17:39;4.22;;;0.70;;
4758;SDS011;2393;50.560;12.636;2023-05-17T01:20:18;0.95;;;0.95;;
4758;SDS011;2393;50.560;12.636;2023-05-17T01:23:00;5.65;;;0.63;;
4758;SDS011;2393;50.560;12.636;2023-05-17T01:25:43;0.95;;;0.95;;
4758;SDS011;2393;50.560;12.636;2023-05-17T01:28:20;2.85;;;0.90;;
4758;SDS011;2393;50.560;12.636;2023-05-17T01:30:52;1.58;;;1.10;;
4758;SDS011;2393;50.560;12.636;2023-05-17T01:33:23;0.98;;;0.75;;
4758;SDS011;2393;50.560;12.636;2023-05-17T01:35:52;0.65;;;0.60;;
4758;SDS011;2393;50.560;12.636;2023-05-17T01:38:20;5.28;;;1.13;;
4758;SDS011;2393;50.560;12.636;2023-05-17T01:40:51;1.00;;;0.90;;
4758;SDS011;2393;50.560;12.636;2023-05-17T01:43:25;7.10;;;1.00;;
4758;SDS011;2393;50.560;12.636;2023-05-17T01:45:59;1.25;;;0.82;;
4758;SDS011;2393;50.560;12.636;2023-05-17T01:48:43;1.60;;;0.93;;
4758;SDS011;2393;50.560;12.636;2023-05-17T01:51:20;1.35;;;0.70;;
4758;SDS011;2393;50.560;12.636;2023-05-17T01:53:54;1.83;;;1.00;;
4758;SDS011;2393;50.560;12.636;2023-05-17T01:56:27;4.07;;;0.70;;
4758;SDS011;2393;50.560;12.636;2023-05-17T01:59:02;0.75;;;0.75;;
4758;SDS011;2393;50.560;12.636;2023-05-17T02:01:32;1.27;;;0.88;;
4758;SDS011;2393;50.560;12.636;2023-05-17T02:04:02;4.88;;;0.60;;
4758;SDS011;2393;50.560;12.636;2023-05-17T02:06:31;3.55;;;1.02;;
4758;SDS011;2393;50.560;12.636;2023-05-17T02:08:59;1.48;;;0.82;;
4758;SDS011;2393;50.560;12.636;2023-05-17T02:11:28;1.77;;;0.60;;
4758;SDS011;2393;50.560;12.636;2023-05-17T02:13:57;1.10;;;0.68;;
4758;SDS011;2393;50.560;12.636;2023-05-17T02:16:27;2.00;;;0.98;;
4758;SDS011;2393;50.560;12.636;2023-05-17T02:18:55;0.70;;;0.60;;
4758;SDS011;2393;50.560;12.636;2023-05-17T02:21:23;1.50;;;1.08;;
4758;SDS011;2393;50.560;12.636;2023-05-17T02:23:51;1.00;;;0.93;;
4758;SDS011;2393;50.560;12.636;2023-05-17T02:26:19;1.13;;;1.05;;
4758;SDS011;2393;50.560;12.636;2023-05-17T02:28:47;0.98;;;0.95;;
4758;SDS011;2393;50.560;12.636;2023-05-17T02:31:15;4.80;;;0.73;;
4758;SDS011;2393;50.560;12.636;2023-05-17T02:33:45;2.35;;;1.10;;
4758;SDS011;2393;50.560;12.636;2023-05-17T02:36:14;1.20;;;1.10;;
4758;SDS011;2393;50.560;12.636;2023-05-17T02:38:44;1.95;;;0.50;;
4758;SDS011;2393;50.560;12.636;2023-05-17T02:41:12;0.77;;;0.77;;
4758;SDS011;2393;50.560;12.636;2023-05-17T02:43:40;3.25;;;1.13;;
4758;SDS011;2393;50.560;12.636;2023-05-17T02:46:08;3.35;;;1.02;;
4758;SDS011;2393;50.560;12.636;2023-05-17T02:48:36;0.77;;;0.77;;
4758;SDS011;2393;50.560;12.636;2023-05-17T02:51:06;1.40;;;1.08;;
4758;SDS011;2393;50.560;12.636;2023-05-17T02:53:34;1.70;;;0.65;;
4758;SDS011;2393;50.560;12.636;2023-05-17T02:56:03;1.23;;;1.02;;
4758;SDS011;2393;50.560;12.636;2023-05-17T02:58:31;3.55;;;1.17;;
4758;SDS011;2393;50.560;12.636;2023-05-17T03:00:59;0.98;;;0.90;;
4758;SDS011;2393;50.560;12.636;2023-05-17T03:03:28;2.55;;;0.80;;
4758;SDS011;2393;50.560;12.636;2023-05-17T03:06:00;3.10;;;0.75;;
4758;SDS011;2393;50.560;12.636;2023-05-17T03:08:30;2.05;;;0.73;;
4758;SDS011;2393;50.560;12.636;2023-05-17T03:10:59;1.30;;;1.20;;
4758;SDS011;2393;50.560;12.636;2023-05-17T03:13:27;2.47;;;1.30;;
4758;SDS011;2393;50.560;12.636;2023-05-17T03:15:56;3.65;;;1.50;;
4758;SDS011;2393;50.560;12.636;2023-05-17T03:18:25;2.35;;;1.15;;
4758;SDS011;2393;50.560;12.636;2023-05-17T03:20:53;0.65;;;0.65;;
4758;SDS011;2393;50.560;12.636;2023-05-17T03:23:21;4.22;;;1.33;;
4758;SDS011;2393;50.560;12.636;2023-05-17T03:26:02;3.17;;;1.08;;
4758;SDS011;2393;50.560;12.636;2023-05-17T03:28:35;7.57;;;1.27;;
4758;SDS011;2393;50.560;12.636;2023-05-17T03:31:04;1.70;;;0.80;;
4758;SDS011;2393;50.560;12.636;2023-05-17T03:33:33;3.90;;;0.80;;
4758;SDS011;2393;50.560;12.636;2023-05-17T03:36:02;4.90;;;1.17;;
4758;SDS011;2393;50.560;12.636;2023-05-17T03:38:31;2.45;;;1.40;;
4758;SDS011;2393;50.560;12.636;2023-05-17T03:40:59;0.77;;;0.77;;
4758;SDS011;2393;50.560;12.636;2023-05-17T03:43:28;4.43;;;1.30;;
4758;SDS011;2393;50.560;12.636;2023-05-17T03:45:58;1.25;;;1.15;;
4758;SDS011;2393;50.560;12.636;2023-05-17T03:48:27;3.80;;;1.45;;
4758;SDS011;2393;50.560;12.636;2023-05-17T03:50:56;1.10;;;1.00;;
4758;SDS011;2393;50.560;12.636;2023-05-17T03:53:25;1.70;;;1.05;;
4758;SDS011;2393;50.560;12.636;2023-05-17T03:55:54;11.50;;;1.55;;
4758;SDS011;2393;50.560;12.636;2023-05-17T03:58:22;5.13;;;1.50;;
4758;SDS011;2393;50.560;12.636;2023-05-17T04:00:51;4.15;;;1.17;;
4758;SDS011;2393;50.560;12.636;2023-05-17T04:03:19;4.10;;;1.40;;
4758;SDS011;2393;50.560;12.636;2023-05-17T04:05:48;2.67;;;1.42;;
4758;SDS011;2393;50.560;12.636;2023-05-17T04:08:16;1.50;;;0.93;;
4758;SDS011;2393;50.560;12.636;2023-05-17T04:10:44;0.85;;;0.85;;
4758;SDS011;2393;50.560;12.636;2023-05-17T04:13:12;3.92;;;0.88;;
4758;SDS011;2393;50.560;12.636;2023-05-17T04:15:40;1.33;;;1.25;;
4758;SDS011;2393;50.560;12.636;2023-05-17T04:18:10;1.63;;;1.20;;
4758;SDS011;2393;50.560;12.636;2023-05-17T04:20:38;3.75;;;1.08;;
4758;SDS011;2393;50.560;12.636;2023-05-17T04:23:06;3.10;;;0.95;;
4758;SDS011;2393;50.560;12.636;2023-05-17T04:25:35;1.52;;;1.20;;
4758;SDS011;2393;50.560;12.636;2023-05-17T04:28:03;2.05;;;1.05;;
4758;SDS011;2393;50.560;12.636;2023-05-17T04:30:31;7.07;;;1.38;;
4758;SDS011;2393;50.560;12.636;2023-05-17T04:32:59;2.15;;;1.65;;
4758;SDS011;2393;50.560;12.636;2023-05-17T04:35:29;1.77;;;0.77;;
4758;SDS011;2393;50.560;12.636;2023-05-17T04:37:58;4.13;;;1.20;;
4758;SDS011;2393;50.560;12.636;2023-05-17T04:40:26;2.20;;;1.35;;
4758;SDS011;2393;50.560;12.636;2023-05-17T04:42:54;2.25;;;1.80;;
4758;SDS011;2393;50.560;12.636;2023-05-17T04:45:23;6.88;;;1.30;;
4758;SDS011;2393;50.560;12.636;2023-05-17T04:47:51;1.40;;;1.25;;
4758;SDS011;2393;50.560;12.636;2023-05-17T04:50:20;0.90;;;0.90;;
4758;SDS011;2393;50.560;12.636;2023-05-17T04:52:50;4.38;;;1.10;;
4758;SDS011;2393;50.560;12.636;2023-05-17T04:55:19;2.65;;;1.15;;
4758;SDS011;2393;50.560;12.636;2023-05-17T04:57:47;7.65;;;1.73;;
4758;SDS011;2393;50.560;12.636;2023-05-17T05:00:15;16.52;;;2.05;;
4758;SDS011;2393;50.560;12.636;2023-05-17T05:02:52;13.13;;;2.05;;
4758;SDS011;2393;50.560;12.636;2023-05-17T05:05:20;5.07;;;1.63;;
4758;SDS011;2393;50.560;12.636;2023-05-17T05:07:51;10.80;;;3.35;;
4758;SDS011;2393;50.560;12.636;2023-05-17T05:10:20;7.20;;;3.85;;
4758;SDS011;2393;50.560;12.636;2023-05-17T05:12:48;6.70;;;3.67;;
4758;SDS011;2393;50.560;12.636;2023-05-17T05:15:17;6.30;;;2.28;;
4758;SDS011;2393;50.560;12.636;2023-05-17T05:17:52;9.13;;;3.65;;
4758;SDS011;2393;50.560;12.636;2023-05-17T05:20:20;3.72;;;2.35;;
4758;SDS011;2393;50.560;12.636;2023-05-17T05:22:51;10.23;;;2.72;;
4758;SDS011;2393;50.560;12.636;2023-05-17T05:25:20;4.60;;;3.50;;
4758;SDS011;2393;50.560;12.636;2023-05-17T05:27:48;6.85;;;2.90;;
4758;SDS011;2393;50.560;12.636;2023-05-17T05:30:16;11.82;;;3.33;;
4758;SDS011;2393;50.560;12.636;2023-05-17T05:32:50;5.22;;;2.33;;
4758;SDS011;2393;50.560;12.636;2023-05-17T05:35:19;9.65;;;3.50;;
4758;SDS011;2393;50.560;12.636;2023-05-17T05:37:53;18.05;;;4.10;;
4758;SDS011;2393;50.560;12.636;2023-05-17T05:40:22;13.00;;;4.53;;
4758;SDS011;2393;50.560;12.636;2023-05-17T05:42:50;6.60;;;3.33;;
4758;SDS011;2393;50.560;12.636;2023-05-17T05:45:19;12.63;;;2.97;;
4758;SDS011;2393;50.560;12.636;2023-05-17T05:47:49;10.30;;;3.03;;
4758;SDS011;2393;50.560;12.636;2023-05-17T05:50:17;12.53;;;4.67;;
4758;SDS011;2393;50.560;12.636;2023-05-17T05:52:47;15.03;;;4.40;;
4758;SDS011;2393;50.560;12.636;2023-05-17T05:55:16;7.33;;;4.13;;
4758;SDS011;2393;50.560;12.636;2023-05-17T05:57:44;9.03;;;4.40;;
4758;SDS011;2393;50.560;12.636;2023-05-17T06:00:13;11.60;;;5.00;;
4758;SDS011;2393;50.560;12.636;2023-05-17T06:02:43;13.63;;;4.50;;
4758;SDS011;2393;50.560;12.636;2023-05-17T06:05:11;16.43;;;4.50;;
4758;SDS011;2393;50.560;12.636;2023-05-17T06:07:39;13.40;;;4.37;;
4758;SDS011;2393;50.560;12.636;2023-05-17T06:10:08;14.73;;;5.03;;
4758;SDS011;2393;50.560;12.636;2023-05-17T06:12:38;23.53;;;4.87;;
4758;SDS011;2393;50.560;12.636;2023-05-17T06:15:06;19.23;;;5.07;;
4758;SDS011;2393;50.560;12.636;2023-05-17T06:17:35;18.73;;;5.07;;
4758;SDS011;2393;50.560;12.636;2023-05-17T06:20:04;18.30;;;5.83;;
4758;SDS011;2393;50.560;12.636;2023-05-17T06:22:32;20.87;;;5.30;;
4758;SDS011;2393;50.560;12.636;2023-05-17T06:25:01;12.27;;;3.20;;
4758;SDS011;2393;50.560;12.636;2023-05-17T06:27:30;15.83;;;4.53;;
4758;SDS011;2393;50.560;12.636;2023-05-17T06:29:59;6.93;;;3.30;;
4758;SDS011;2393;50.560;12.636;2023-05-17T06:32:32;13.87;;;3.40;;
4758;SDS011;2393;50.560;12.636;2023-05-17T06:35:01;14.70;;;3.43;;
4758;SDS011;2393;50.560;12.636;2023-05-17T06:37:29;19.57;;;5.93;;
4758;SDS011;2393;50.560;12.636;2023-05-17T06:40:00;14.70;;;4.77;;
4758;SDS011;2393;50.560;12.636;2023-05-17T06:42:41;16.87;;;3.77;;
4758;SDS011;2393;50.560;12.636;2023-05-17T06:45:12;8.07;;;2.40;;
4758;SDS011;2393;50.560;12.636;2023-05-17T06:47:40;14.43;;;3.60;;
4758;SDS011;2393;50.560;12.636;2023-05-17T06:50:09;5.90;;;3.07;;
4758;SDS011;2393;50.560;12.636;2023-05-17T06:52:37;11.63;;;3.20;;
4758;SDS011;2393;50.560;12.636;2023-05-17T06:55:06;23.87;;;3.20;;
4758;SDS011;2393;50.560;12.636;2023-05-17T06:57:35;6.80;;;2.73;;
4758;SDS011;2393;50.560;12.636;2023-05-17T07:00:03;6.00;;;2.60;;
4758;SDS011;2393;50.560;12.636;2023-05-17T07:02:37;12.33;;;3.17;;
4758;SDS011;2393;50.560;12.636;2023-05-17T07:05:05;4.63;;;2.17;;
4758;SDS011;2393;50.560;12.636;2023-05-17T07:07:34;7.60;;;2.80;;
4758;SDS011;2393;50.560;12.636;2023-05-17T07:10:02;9.87;;;3.53;;
4758;SDS011;2393;50.560;12.636;2023-05-17T07:12:31;7.57;;;3.80;;
4758;SDS011;2393;50.560;12.636;2023-05-17T07:14:59;8.17;;;3.63;;
4758;SDS011;2393;50.560;12.636;2023-05-17T07:17:27;12.30;;;3.17;;
4758;SDS011;2393;50.560;12.636;2023-05-17T07:19:57;7.03;;;2.93;;
4758;SDS011;2393;50.560;12.636;2023-05-17T07:22:25;14.77;;;4.17;;
4758;SDS011;2393;50.560;12.636;2023-05-17T07:24:53;8.83;;;3.23;;
4758;SDS011;2393;50.560;12.636;2023-05-17T07:27:21;9.90;;;3.73;;
4758;SDS011;2393;50.560;12.636;2023-05-17T07:29:52;10.40;;;4.53;;
4758;SDS011;2393;50.560;12.636;2023-05-17T07:32:20;7.87;;;4.80;;
4758;SDS011;2393;50.560;12.636;2023-05-17T07:34:48;16.90;;;6.23;;
4758;SDS011;2393;50.560;12.636;2023-05-17T07:37:17;11.43;;;4.70;;
4758;SDS011;2393;50.560;12.636;2023-05-17T07:39:46;13.00;;;5.27;;
4758;SDS011;2393;50.560;12.636;2023-05-17T07:42:14;11.83;;;5.60;;
4758;SDS011;2393;50.560;12.636;2023-05-17T07:44:42;10.13;;;6.60;;
4758;SDS011;2393;50.560;12.636;2023-05-17T07:47:14;12.97;;;6.80;;
4758;SDS011;2393;50.560;12.636;2023-05-17T07:49:42;15.10;;;6.67;;
4758;SDS011;2393;50.560;12.636;2023-05-17T07:52:10;12.73;;;6.47;;
4758;SDS011;2393;50.560;12.636;2023-05-17T07:54:40;17.80;;;5.73;;
4758;SDS011;2393;50.560;12.636;2023-05-17T07:57:08;9.70;;;5.57;;
4758;SDS011;2393;50.560;12.636;2023-05-17T07:59:36;12.67;;;6.43;;
4758;SDS011;2393;50.560;12.636;2023-05-17T08:02:04;14.53;;;5.70;;
4758;SDS011;2393;50.560;12.636;2023-05-17T08:04:33;20.43;;;4.97;;
4758;SDS011;2393;50.560;12.636;2023-05-17T08:07:01;9.00;;;4.63;;
4758;SDS011;2393;50.560;12.636;2023-05-17T08:09:29;8.10;;;4.87;;
4758;SDS011;2393;50.560;12.636;2023-05-17T08:11:59;15.50;;;4.60;;
4758;SDS011;2393;50.560;12.636;2023-05-17T08:14:27;14.07;;;5.17;;
4758;SDS011;2393;50.560;12.636;2023-05-17T08:16:55;8.83;;;4.23;;
4758;SDS011;2393;50.560;12.636;2023-05-17T08:19:24;7.17;;;3.50;;
4758;SDS011;2393;50.560;12.636;2023-05-17T08:21:52;7.67;;;4.00;;
4758;SDS011;2393;50.560;12.636;2023-05-17T08:24:21;4.97;;;3.07;;
4758;SDS011;2393;50.560;12.636;2023-05-17T08:26:49;7.63;;;4.03;;
4758;SDS011;2393;50.560;12.636;2023-05-17T08:29:21;4.50;;;3.03;;
4758;SDS011;2393;50.560;12.636;2023-05-17T08:31:49;8.20;;;4.20;;
4758;SDS011;2393;50.560;12.636;2023-05-17T08:34:17;15.87;;;4.30;;
4758;SDS011;2393;50.560;12.636;2023-05-17T08:36:46;9.97;;;4.27;;
4758;SDS011;2393;50.560;12.636;2023-05-17T08:39:14;14.00;;;5.00;;
4758;SDS011;2393;50.560;12.636;2023-05-17T08:41:44;8.03;;;3.47;;
4758;SDS011;2393;50.560;12.636;2023-05-17T08:44:13;11.00;;;3.23;;
4758;SDS011;2393;50.560;12.636;2023-05-17T08:46:44;11.13;;;3.20;;
4758;SDS011;2393;50.560;12.636;2023-05-17T08:49:19;18.33;;;4.10;;
4758;SDS011;2393;50.560;12.636;2023-05-17T08:51:52;8.27;;;3.10;;
4758;SDS011;2393;50.560;12.636;2023-05-17T08:54:21;4.53;;;2.57;;
4758;SDS011;2393;50.560;12.636;2023-05-17T08:56:49;11.50;;;2.60;;
4758;SDS011;2393;50.560;12.636;2023-05-17T08:59:25;4.20;;;2.70;;
4758;SDS011;2393;50.560;12.636;2023-05-17T09:02:00;6.73;;;2.73;;
4758;SDS011;2393;50.560;12.636;2023-05-17T09:04:29;3.80;;;1.73;;
4758;SDS011;2393;50.560;12.636;2023-05-17T09:06:57;6.40;;;1.90;;
4758;SDS011;2393;50.560;12.636;2023-05-17T09:09:26;2.50;;;2.13;;
4758;SDS011;2393;50.560;12.636;2023-05-17T09:11:55;6.17;;;1.60;;
4758;SDS011;2393;50.560;12.636;2023-05-17T09:14:23;9.03;;;2.57;;
4758;SDS011;2393;50.560;12.636;2023-05-17T09:16:54;4.20;;;2.23;;
4758;SDS011;2393;50.560;12.636;2023-05-17T09:19:25;5.40;;;2.50;;
4758;SDS011;2393;50.560;12.636;2023-05-17T09:21:53;5.53;;;2.60;;
4758;SDS011;2393;50.560;12.636;2023-05-17T09:24:26;11.97;;;2.57;;
4758;SDS011;2393;50.560;12.636;2023-05-17T09:26:59;4.37;;;2.53;;
4758;SDS011;2393;50.560;12.636;2023-05-17T09:29:29;4.50;;;2.30;;
4758;SDS011;2393;50.560;12.636;2023-05-17T09:32:10;6.47;;;2.07;;
4758;SDS011;2393;50.560;12.636;2023-05-17T09:34:40;5.73;;;2.63;;
4758;SDS011;2393;50.560;12.636;2023-05-17T09:37:11;6.90;;;2.53;;
4758;SDS011;2393;50.560;12.636;2023-05-17T09:39:40;9.60;;;2.87;;
4758;SDS011;2393;50.560;12.636;2023-05-17T09:42:10;14.40;;;3.27;;
4758;SDS011;2393;50.560;12.636;2023-05-17T09:44:48;9.73;;;2.73;;
4758;SDS011;2393;50.560;12.636;2023-05-17T09:47:22;11.33;;;2.80;;
4758;SDS011;2393;50.560;12.636;2023-05-17T09:49:53;10.63;;;2.80;;
4758;SDS011;2393;50.560;12.636;2023-05-17T09:52:23;10.73;;;2.70;;
4758;SDS011;2393;50.560;12.636;2023-05-17T09:54:53;8.30;;;2.23;;
4758;SDS011;2393;50.560;12.636;2023-05-17T09:57:23;3.03;;;2.37;;
4758;SDS011;2393;50.560;12.636;2023-05-17T09:59:53;11.20;;;2.93;;
4758;SDS011;2393;50.560;12.636;2023-05-17T10:02:25;9.17;;;2.83;;
4758;SDS011;2393;50.560;12.636;2023-05-17T10:04:56;9.93;;;3.00;;
4758;SDS011;2393;50.560;12.636;2023-05-17T10:07:25;7.53;;;2.57;;
4758;SDS011;2393;50.560;12.636;2023-05-17T10:09:53;13.30;;;3.10;;
4758;SDS011;2393;50.560;12.636;2023-05-17T10:12:23;7.20;;;2.73;;
4758;SDS011;2393;50.560;12.636;2023-05-17T10:14:55;8.37;;;2.77;;
4758;SDS011;2393;50.560;12.636;2023-05-17T10:17:25;10.03;;;2.77;;
4758;SDS011;2393;50.560;12.636;2023-05-17T10:19:57;11.87;;;3.23;;
4758;SDS011;2393;50.560;12.636;2023-05-17T10:22:25;9.60;;;3.90;;
4758;SDS011;2393;50.560;12.636;2023-05-17T10:24:54;5.73;;;2.17;;
4758;SDS011;2393;50.560;12.636;2023-05-17T10:27:23;6.30;;;3.00;;
4758;SDS011;2393;50.560;12.636;2023-05-17T10:29:53;9.43;;;2.20;;
4758;SDS011;2393;50.560;12.636;2023-05-17T10:32:21;14.93;;;3.30;;
4758;SDS011;2393;50.560;12.636;2023-05-17T10:34:52;6.00;;;2.53;;
4758;SDS011;2393;50.560;12.636;2023-05-17T10:37:39;13.07;;;3.60;;
4758;SDS011;2393;50.560;12.636;2023-05-17T10:40:07;4.40;;;2.43;;
4758;SDS011;2393;50.560;12.636;2023-05-17T10:42:40;12.03;;;3.23;;
4758;SDS011;2393;50.560;12.636;2023-05-17T10:45:11;5.23;;;2.57;;
4758;SDS011;2393;50.560;12.636;2023-05-17T10:47:40;5.30;;;2.70;;
4758;SDS011;2393;50.560;12.636;2023-05-17T10:50:09;17.97;;;6.43;;
4758;SDS011;2393;50.560;12.636;2023-05-17T10:52:45;11.97;;;3.57;;
4758;SDS011;2393;50.560;12.636;2023-05-17T10:55:18;10.53;;;3.00;;
4758;SDS011;2393;50.560;12.636;2023-05-17T10:58:07;9.80;;;2.70;;
4758;SDS011;2393;50.560;12.636;2023-05-17T11:00:41;7.93;;;2.33;;
4758;SDS011;2393;50.560;12.636;2023-05-17T11:03:13;20.27;;;3.53;;
4758;SDS011;2393;50.560;12.636;2023-05-17T11:05:43;12.03;;;2.50;;
4758;SDS011;2393;50.560;12.636;2023-05-17T11:09:04;10.53;;;2.53;;
4758;SDS011;2393;50.560;12.636;2023-05-17T11:11:34;10.70;;;2.47;;
4758;SDS011;2393;50.560;12.636;2023-05-17T11:14:03;6.47;;;3.40;;
4758;SDS011;2393;50.560;12.636;2023-05-17T11:16:33;2.80;;;2.20;;
4758;SDS011;2393;50.560;12.636;2023-05-17T11:19:06;16.03;;;3.03;;
4758;SDS011;2393;50.560;12.636;2023-05-17T11:21:44;7.13;;;4.50;;
4758;SDS011;2393;50.560;12.636;2023-05-17T11:24:14;7.67;;;2.43;;
4758;SDS011;2393;50.560;12.636;2023-05-17T11:26:53;6.23;;;2.37;;
4758;SDS011;2393;50.560;12.636;2023-05-17T11:29:22;15.43;;;3.37;;
4758;SDS011;2393;50.560;12.636;2023-05-17T11:31:56;8.17;;;3.40;;
4758;SDS011;2393;50.560;12.636;2023-05-17T11:34:24;9.00;;;2.70;;
4758;SDS011;2393;50.560;12.636;2023-05-17T11:36:54;15.07;;;3.27;;
4758;SDS011;2393;50.560;12.636;2023-05-17T11:39:24;11.23;;;2.50;;
4758;SDS011;2393;50.560;12.636;2023-05-17T11:41:52;11.20;;;2.80;;
4758;SDS011;2393;50.560;12.636;2023-05-17T11:44:22;7.97;;;2.50;;
4758;SDS011;2393;50.560;12.636;2023-05-17T11:46:59;16.87;;;3.10;;
4758;SDS011;2393;50.560;12.636;2023-05-17T11:49:30;7.30;;;2.80;;
4758;SDS011;2393;50.560;12.636;2023-05-17T11:52:02;6.70;;;2.30;;
4758;SDS011;2393;50.560;12.636;2023-05-17T11:54:33;6.53;;;2.60;;
4758;SDS011;2393;50.560;12.636;2023-05-17T11:57:04;11.20;;;3.10;;
4758;SDS011;2393;50.560;12.636;2023-05-17T11:59:35;13.90;;;2.67;;
4758;SDS011;2393;50.560;12.636;2023-05-17T12:02:05;6.00;;;2.60;;
4758;SDS011;2393;50.560;12.636;2023-05-17T12:04:34;8.83;;;2.27;;
4758;SDS011;2393;50.560;12.636;2023-05-17T12:07:04;6.40;;;2.63;;
4758;SDS011;2393;50.560;12.636;2023-05-17T12:09:37;12.80;;;2.90;;
4758;SDS011;2393;50.560;12.636;2023-05-17T12:12:06;8.67;;;2.97;;
4758;SDS011;2393;50.560;12.636;2023-05-17T12:14:35;15.60;;;3.40;;
4758;SDS011;2393;50.560;12.636;2023-05-17T12:17:04;12.23;;;2.60;;
4758;SDS011;2393;50.560;12.636;2023-05-17T12:19:35;9.53;;;2.10;;
4758;SDS011;2393;50.560;12.636;2023-05-17T12:22:06;12.70;;;3.93;;
4758;SDS011;2393;50.560;12.636;2023-05-17T12:24:40;9.77;;;2.60;;
4758;SDS011;2393;50.560;12.636;2023-05-17T12:27:09;6.47;;;2.40;;
4758;SDS011;2393;50.560;12.636;2023-05-17T12:29:37;7.07;;;2.40;;
4758;SDS011;2393;50.560;12.636;2023-05-17T12:32:06;9.40;;;3.20;;
4758;SDS011;2393;50.560;12.636;2023-05-17T12:34:36;8.83;;;2.37;;
4758;SDS011;2393;50.560;12.636;2023-05-17T12:37:05;6.83;;;2.90;;
4758;SDS011;2393;50.560;12.636;2023-05-17T12:39:36;15.20;;;2.70;;
4758;SDS011;2393;50.560;12.636;2023-05-17T12:42:06;9.07;;;2.60;;
4758;SDS011;2393;50.560;12.636;2023-05-17T12:44:35;7.73;;;2.00;;
4758;SDS011;2393;50.560;12.636;2023-05-17T12:47:04;6.20;;;2.50;;
4758;SDS011;2393;50.560;12.636;2023-05-17T12:49:36;2.03;;;1.63;;
4758;SDS011;2393;50.560;12.636;2023-05-17T12:52:05;18.17;;;2.80;;
4758;SDS011;2393;50.560;12.636;2023-05-17T12:54:34;16.07;;;2.57;;
4758;SDS011;2393;50.560;12.636;2023-05-17T12:57:10;6.50;;;1.70;;
4758;SDS011;2393;50.560;12.636;2023-05-17T12:59:46;11.57;;;2.50;;
4758;SDS011;2393;50.560;12.636;2023-05-17T13:02:15;6.07;;;1.80;;
4758;SDS011;2393;50.560;12.636;2023-05-17T13:04:45;7.03;;;1.90;;
4758;SDS011;2393;50.560;12.636;2023-05-17T13:07:19;5.70;;;2.13;;
4758;SDS011;2393;50.560;12.636;2023-05-17T13:09:49;8.40;;;2.00;;
4758;SDS011;2393;50.560;12.636;2023-05-17T13:12:19;3.50;;;1.80;;
4758;SDS011;2393;50.560;12.636;2023-05-17T13:14:50;3.30;;;1.93;;
4758;SDS011;2393;50.560;12.636;2023-05-17T13:17:23;8.40;;;1.50;;
4758;SDS011;2393;50.560;12.636;2023-05-17T13:19:52;6.13;;;1.47;;
4758;SDS011;2393;50.560;12.636;2023-05-17T13:22:23;4.50;;;2.00;;
4758;SDS011;2393;50.560;12.636;2023-05-17T13:24:51;4.47;;;1.10;;
4758;SDS011;2393;50.560;12.636;2023-05-17T13:27:20;5.60;;;1.23;;
4758;SDS011;2393;50.560;12.636;2023-05-17T13:29:49;11.37;;;1.93;;
4758;SDS011;2393;50.560;12.636;2023-05-17T13:32:17;5.97;;;1.90;;
4758;SDS011;2393;50.560;12.636;2023-05-17T13:34:45;7.97;;;2.10;;
4758;SDS011;2393;50.560;12.636;2023-05-17T13:37:13;7.60;;;1.60;;
4758;SDS011;2393;50.560;12.636;2023-05-17T13:39:41;8.10;;;1.37;;
4758;SDS011;2393;50.560;12.636;2023-05-17T13:42:09;8.00;;;1.70;;
4758;SDS011;2393;50.560;12.636;2023-05-17T13:44:40;5.90;;;1.60;;
4758;SDS011;2393;50.560;12.636;2023-05-17T13:47:08;4.43;;;1.30;;
4758;SDS011;2393;50.560;12.636;2023-05-17T13:49:36;7.03;;;1.63;;
4758;SDS011;2393;50.560;12.636;2023-05-17T13:52:04;4.53;;;1.63;;
4758;SDS011;2393;50.560;12.636;2023-05-17T13:54:34;8.87;;;1.80;;
4758;SDS011;2393;50.560;12.636;2023-05-17T13:57:03;3.20;;;1.90;;
4758;SDS011;2393;50.560;12.636;2023-05-17T13:59:32;8.23;;;1.97;;
4758;SDS011;2393;50.560;12.636;2023-05-17T14:02:01;7.40;;;5.50;;
4758;SDS011;2393;50.560;12.636;2023-05-17T14:04:30;11.90;;;1.90;;
4758;SDS011;2393;50.560;12.636;2023-05-17T14:06:58;6.30;;;1.43;;
4758;SDS011;2393;50.560;12.636;2023-05-17T14:09:27;17.17;;;1.30;;
4758;SDS011;2393;50.560;12.636;2023-05-17T14:11:58;13.50;;;2.03;;
4758;SDS011;2393;50.560;12.636;2023-05-17T14:14:27;10.53;;;1.40;;
4758;SDS011;2393;50.560;12.636;2023-05-17T14:16:56;4.77;;;1.37;;
4758;SDS011;2393;50.560;12.636;2023-05-17T14:19:26;8.53;;;1.60;;
4758;SDS011;2393;50.560;12.636;2023-05-17T14:21:55;14.23;;;1.80;;
4758;SDS011;2393;50.560;12.636;2023-05-17T14:24:23;19.17;;;1.30;;
4758;SDS011;2393;50.560;12.636;2023-05-17T14:26:51;6.20;;;1.63;;
4758;SDS011;2393;50.560;12.636;2023-05-17T14:29:19;7.90;;;1.50;;
4758;SDS011;2393;50.560;12.636;2023-05-17T14:31:47;9.00;;;1.23;;
4758;SDS011;2393;50.560;12.636;2023-05-17T14:34:15;7.70;;;1.33;;
4758;SDS011;2393;50.560;12.636;2023-05-17T14:36:45;6.77;;;1.30;;
4758;SDS011;2393;50.560;12.636;2023-05-17T14:39:13;12.67;;;2.17;;
4758;SDS011;2393;50.560;12.636;2023-05-17T14:41:41;9.70;;;1.97;;
4758;SDS011;2393;50.560;12.636;2023-05-17T14:44:10;8.63;;;1.60;;
4758;SDS011;2393;50.560;12.636;2023-05-17T14:46:38;8.20;;;1.10;;
4758;SDS011;2393;50.560;12.636;2023-05-17T14:49:06;6.83;;;1.10;;
4758;SDS011;2393;50.560;12.636;2023-05-17T14:51:35;6.53;;;1.03;;
4758;SDS011;2393;50.560;12.636;2023-05-17T14:54:04;8.97;;;1.40;;
4758;SDS011;2393;50.560;12.636;2023-05-17T14:56:33;3.47;;;1.60;;
4758;SDS011;2393;50.560;12.636;2023-05-17T14:59:02;8.23;;;1.30;;
4758;SDS011;2393;50.560;12.636;2023-05-17T15:01:30;4.73;;;1.60;;
4758;SDS011;2393;50.560;12.636;2023-05-17T15:03:59;2.63;;;1.27;;
4758;SDS011;2393;50.560;12.636;2023-05-17T15:06:27;5.30;;;1.10;;
4758;SDS011;2393;50.560;12.636;2023-05-17T15:08:56;6.47;;;1.63;;
4758;SDS011;2393;50.560;12.636;2023-05-17T15:11:26;1.90;;;0.70;;
4758;SDS011;2393;50.560;12.636;2023-05-17T15:13:54;6.73;;;1.63;;